Time;durP1;ratioP1;P1;durP2;ratioP2;P2;SDS_P1;SDS_P2;PMS_P1;PMS_P2;Temp;Humidity;BMP_temperature;BMP_pressure;BME280_temperature;BME280_humidity;BME280_pressure;Samples;Min_cycle;Max_cycle;Signal;HPM_P1;HPM_P2
2023/12/02 00:01:14;;;;;;;31.85;17.85;;;0.30;99.90;;;;;;5033104;28;20297;-65
2023/12/02 00:03:43;;;;;;;36.67;15.80;;;0.30;99.90;;;;;;5038547;28;20197;-67
2023/12/02 00:06:12;;;;;;;36.10;15.80;;;0.30;99.90;;;;;;5041096;28;20212;-66
2023/12/02 00:08:40;;;;;;;30.67;15.57;;;0.30;99.90;;;;;;5039748;28;20279;-65
2023/12/02 00:11:08;;;;;;;29.90;16.65;;;0.30;99.90;;;;;;5040571;28;20627;-66
2023/12/02 00:13:36;;;;;;;34.45;16.70;;;0.30;99.90;;;;;;5034676;28;20263;-65
2023/12/02 00:16:06;;;;;;;31.80;15.68;;;0.30;99.90;;;;;;5039817;28;20201;-66
2023/12/02 00:18:34;;;;;;;35.75;15.40;;;0.30;99.90;;;;;;5038701;28;20685;-66
2023/12/02 00:21:03;;;;;;;36.65;16.40;;;0.30;99.90;;;;;;5035797;28;20255;-67
2023/12/02 00:23:32;;;;;;;41.50;17.85;;;0.30;99.90;;;;;;5042097;28;20204;-65
2023/12/02 00:26:00;;;;;;;35.20;16.10;;;0.30;99.90;;;;;;5034772;28;20271;-66
2023/12/02 00:28:28;;;;;;;34.53;17.15;;;0.30;99.90;;;;;;5035872;28;20694;-64
2023/12/02 00:30:56;;;;;;;36.33;17.77;;;0.30;99.90;;;;;;5038653;28;20223;-66
2023/12/02 00:33:24;;;;;;;36.80;16.98;;;0.30;99.90;;;;;;5036319;28;20203;-65
2023/12/02 00:35:52;;;;;;;38.53;17.95;;;0.20;99.90;;;;;;5035725;28;20206;-65
2023/12/02 00:38:21;;;;;;;35.28;15.82;;;0.20;99.90;;;;;;5033342;28;20201;-65
2023/12/02 00:40:49;;;;;;;33.95;16.02;;;0.20;99.90;;;;;;5034050;28;20217;-66
2023/12/02 00:43:17;;;;;;;35.70;16.45;;;0.20;99.90;;;;;;5039952;28;20628;-66
2023/12/02 00:45:45;;;;;;;34.03;17.95;;;0.20;99.90;;;;;;5043678;28;20610;-66
2023/12/02 00:48:13;;;;;;;35.30;16.75;;;0.20;99.90;;;;;;5046910;28;20275;-65
2023/12/02 00:50:41;;;;;;;39.03;16.25;;;0.30;99.90;;;;;;5044798;28;20256;-64
2023/12/02 00:53:09;;;;;;;32.58;16.15;;;0.30;99.90;;;;;;5046915;28;20812;-65
2023/12/02 00:55:38;;;;;;;32.88;15.82;;;0.30;99.90;;;;;;5037879;28;20626;-66
2023/12/02 00:58:06;;;;;;;33.65;15.98;;;0.30;99.90;;;;;;5045273;28;20213;-66
2023/12/02 01:00:34;;;;;;;31.20;13.93;;;0.20;99.90;;;;;;5043173;28;20221;-64
2023/12/02 01:03:02;;;;;;;36.28;16.90;;;0.20;99.90;;;;;;5045055;28;20211;-66
2023/12/02 01:05:30;;;;;;;38.45;16.98;;;0.20;99.90;;;;;;5036466;28;20208;-64
2023/12/02 01:07:58;;;;;;;35.55;16.15;;;0.20;99.90;;;;;;5044217;28;20216;-65
2023/12/02 01:10:26;;;;;;;35.33;17.00;;;0.20;99.90;;;;;;5046806;28;20209;-65
2023/12/02 01:12:55;;;;;;;40.03;18.08;;;0.20;99.90;;;;;;5045846;28;20208;-65
2023/12/02 01:15:23;;;;;;;35.00;16.13;;;0.10;99.90;;;;;;5035841;28;20198;-64
2023/12/02 01:17:51;;;;;;;40.40;17.77;;;0.10;99.90;;;;;;5045886;28;20626;-65
2023/12/02 01:20:19;;;;;;;37.47;17.17;;;0.10;99.90;;;;;;5039844;28;20212;-65
2023/12/02 01:22:47;;;;;;;39.85;17.23;;;0.10;99.90;;;;;;5038384;28;20205;-64
2023/12/02 01:25:15;;;;;;;33.60;17.83;;;0.00;99.90;;;;;;5044638;28;20606;-64
2023/12/02 01:27:43;;;;;;;34.60;18.35;;;0.10;99.90;;;;;;5043918;28;20221;-64
2023/12/02 01:30:13;;;;;;;39.40;18.25;;;0.00;99.90;;;;;;5043209;28;20204;-64
2023/12/02 01:32:41;;;;;;;35.10;16.95;;;0.00;99.90;;;;;;5043900;28;20209;-65
2023/12/02 01:35:09;;;;;;;33.25;17.52;;;0.00;99.90;;;;;;5042843;28;20817;-65
2023/12/02 01:37:38;;;;;;;36.75;17.00;;;0.00;99.90;;;;;;5040553;28;20761;-64
2023/12/02 01:40:07;;;;;;;36.72;17.17;;;0.00;99.90;;;;;;5043978;28;20876;-65
2023/12/02 01:42:35;;;;;;;35.75;16.05;;;0.00;99.90;;;;;;5041931;28;20219;-61
2023/12/02 01:45:03;;;;;;;33.30;15.68;;;0.00;99.90;;;;;;5041611;28;20233;-62
2023/12/02 01:47:33;;;;;;;44.47;18.17;;;0.00;99.90;;;;;;5042843;28;20197;-63
2023/12/02 01:50:03;;;;;;;40.17;17.70;;;-0.10;99.90;;;;;;5039916;28;20224;-66
2023/12/02 01:52:32;;;;;;;35.88;16.60;;;0.00;99.90;;;;;;5044320;28;20578;-65
2023/12/02 01:55:00;;;;;;;37.78;16.20;;;-0.10;99.90;;;;;;5043090;28;20232;-63
2023/12/02 01:57:29;;;;;;;40.67;18.05;;;-0.10;99.90;;;;;;5045683;28;20197;-65
2023/12/02 01:59:57;;;;;;;35.95;17.35;;;-0.10;99.90;;;;;;5046720;28;20584;-64
2023/12/02 02:02:26;;;;;;;33.50;16.15;;;0.00;99.90;;;;;;5048672;28;20224;-65
2023/12/02 02:04:55;;;;;;;32.38;15.23;;;0.00;99.90;;;;;;5049454;28;20209;-64
2023/12/02 02:07:26;;;;;;;36.53;17.70;;;-0.10;99.90;;;;;;5050474;28;20293;-64
2023/12/02 02:09:54;;;;;;;36.22;16.60;;;-0.10;99.90;;;;;;5046670;28;20217;-64
2023/12/02 02:12:22;;;;;;;39.40;17.75;;;-0.10;99.90;;;;;;5044938;28;20306;-64
2023/12/02 02:14:50;;;;;;;40.63;18.23;;;-0.10;99.90;;;;;;5043840;28;20213;-64
2023/12/02 02:17:18;;;;;;;36.90;17.73;;;-0.10;99.90;;;;;;5049604;28;20274;-64
2023/12/02 02:19:46;;;;;;;33.60;14.32;;;-0.10;99.90;;;;;;5043201;28;20251;-65
2023/12/02 02:22:15;;;;;;;34.25;15.63;;;-0.10;99.90;;;;;;5041880;28;20224;-63
2023/12/02 02:24:43;;;;;;;35.40;14.93;;;-0.10;99.90;;;;;;5046402;28;20206;-66
2023/12/02 02:27:11;;;;;;;33.72;15.27;;;-0.10;99.90;;;;;;5046040;28;20332;-65
2023/12/02 02:29:39;;;;;;;32.53;14.80;;;-0.10;99.90;;;;;;5048830;28;20228;-66
2023/12/02 02:32:07;;;;;;;37.55;16.98;;;-0.10;99.90;;;;;;5047136;28;20217;-65
2023/12/02 02:34:35;;;;;;;36.92;18.17;;;-0.20;99.90;;;;;;5046097;28;20201;-63
2023/12/02 02:37:03;;;;;;;35.25;15.75;;;-0.20;99.90;;;;;;5049622;28;20201;-65
2023/12/02 02:39:33;;;;;;;34.20;16.55;;;-0.20;99.90;;;;;;5046360;28;20202;-66
2023/12/02 02:42:05;;;;;;;37.03;16.13;;;-0.20;99.90;;;;;;5041756;28;20273;-65
2023/12/02 02:44:34;;;;;;;38.70;16.35;;;-0.20;99.90;;;;;;5044520;28;20284;-65
2023/12/02 02:47:02;;;;;;;38.17;17.45;;;-0.20;99.90;;;;;;5047056;28;20208;-65
2023/12/02 02:49:30;;;;;;;40.10;16.85;;;-0.20;99.90;;;;;;5045531;28;20216;-65
2023/12/02 02:51:58;;;;;;;35.53;16.00;;;-0.20;99.90;;;;;;5048904;28;20228;-65
2023/12/02 02:54:26;;;;;;;37.25;18.95;;;-0.20;99.90;;;;;;5046092;28;20667;-66
2023/12/02 02:56:55;;;;;;;40.88;17.65;;;-0.20;99.90;;;;;;5044917;28;20202;-65
2023/12/02 02:59:23;;;;;;;44.28;17.42;;;-0.20;99.90;;;;;;5046802;28;20216;-64
2023/12/02 03:01:52;;;;;;;37.22;16.13;;;-0.20;99.90;;;;;;5044282;28;20276;-65
2023/12/02 03:04:20;;;;;;;38.25;18.58;;;-0.30;99.90;;;;;;5044627;28;20674;-66
2023/12/02 03:06:48;;;;;;;43.42;20.13;;;-0.30;99.90;;;;;;5049309;28;20216;-65
2023/12/02 03:09:17;;;;;;;33.78;18.02;;;-0.30;99.90;;;;;;5051678;28;20217;-64
2023/12/02 03:11:48;;;;;;;38.47;17.02;;;-0.30;99.90;;;;;;5048290;28;20247;-65
2023/12/02 03:14:17;;;;;;;41.83;16.45;;;-0.30;99.90;;;;;;5037386;28;20205;-66
2023/12/02 03:16:45;;;;;;;40.95;20.25;;;-0.40;99.90;;;;;;5048172;28;20346;-63
2023/12/02 03:19:13;;;;;;;42.08;17.80;;;-0.40;99.90;;;;;;5043759;28;20623;-64
2023/12/02 03:21:41;;;;;;;39.83;17.52;;;-0.30;99.90;;;;;;5045986;28;20239;-66
2023/12/02 03:24:09;;;;;;;40.17;17.63;;;-0.40;99.90;;;;;;5041230;28;20206;-65
2023/12/02 03:26:37;;;;;;;35.88;16.63;;;-0.40;99.90;;;;;;5047985;28;20291;-66
2023/12/02 03:29:05;;;;;;;37.55;16.67;;;-0.40;99.90;;;;;;5047186;28;20249;-65
2023/12/02 03:31:34;;;;;;;41.78;17.92;;;-0.40;99.90;;;;;;5042969;28;20221;-65
2023/12/02 03:34:03;;;;;;;37.95;16.20;;;-0.40;99.90;;;;;;5042553;28;20275;-66
2023/12/02 03:36:31;;;;;;;37.47;16.83;;;-0.40;99.90;;;;;;5043594;28;20220;-65
2023/12/02 03:39:00;;;;;;;39.10;18.67;;;-0.40;99.90;;;;;;5041070;28;20244;-64
2023/12/02 03:41:29;;;;;;;36.75;16.92;;;-0.40;99.90;;;;;;5038445;28;20222;-65
2023/12/02 03:43:57;;;;;;;40.28;16.83;;;-0.40;99.90;;;;;;5047344;28;20201;-66
2023/12/02 03:46:28;;;;;;;37.25;17.45;;;-0.50;99.90;;;;;;5040524;28;20627;-65
2023/12/02 03:48:57;;;;;;;36.88;16.88;;;-0.50;99.90;;;;;;5043328;28;20230;-66
2023/12/02 03:51:25;;;;;;;35.45;14.65;;;-0.50;99.90;;;;;;5044924;28;20877;-64
2023/12/02 03:53:54;;;;;;;36.35;17.52;;;-0.50;99.90;;;;;;5046394;28;20205;-65
2023/12/02 03:56:22;;;;;;;31.73;15.00;;;-0.50;99.90;;;;;;5040605;28;20201;-65
2023/12/02 03:58:51;;;;;;;37.80;16.92;;;-0.50;99.90;;;;;;5041369;28;20207;-65
2023/12/02 04:01:19;;;;;;;42.33;17.55;;;-0.50;99.90;;;;;;5045202;28;20275;-64
2023/12/02 04:03:47;;;;;;;35.88;16.30;;;-0.50;99.90;;;;;;5038618;28;20202;-65
2023/12/02 04:06:16;;;;;;;33.58;17.98;;;-0.50;99.90;;;;;;5047321;28;20208;-65
2023/12/02 04:08:44;;;;;;;44.25;17.00;;;-0.50;99.90;;;;;;5047911;28;20205;-65
2023/12/02 04:11:12;;;;;;;34.40;15.32;;;-0.50;99.90;;;;;;5041888;28;20221;-65
2023/12/02 04:13:41;;;;;;;36.35;16.05;;;-0.50;99.90;;;;;;5044387;28;20197;-64
2023/12/02 04:16:10;;;;;;;31.42;14.20;;;-0.60;99.90;;;;;;5040263;28;20198;-66
2023/12/02 04:18:37;;;;;;;39.33;18.83;;;-0.60;99.90;;;;;;5044489;28;20680;-65
2023/12/02 04:21:08;;;;;;;32.25;17.05;;;-0.50;99.90;;;;;;5042573;28;20271;-64
2023/12/02 04:23:38;;;;;;;38.08;17.63;;;-0.60;99.90;;;;;;5041710;28;20207;-65
2023/12/02 04:26:07;;;;;;;33.83;14.55;;;-0.60;99.90;;;;;;5045282;28;20279;-65
2023/12/02 04:28:35;;;;;;;31.25;14.70;;;-0.50;99.90;;;;;;5045187;28;20271;-65
2023/12/02 04:31:03;;;;;;;28.70;13.35;;;-0.60;99.90;;;;;;5042010;28;20222;-65
2023/12/02 04:33:31;;;;;;;27.80;14.30;;;-0.60;99.90;;;;;;5044602;28;20212;-66
2023/12/02 04:35:59;;;;;;;32.85;15.55;;;-0.50;99.90;;;;;;5044365;28;20209;-65
2023/12/02 04:38:27;;;;;;;32.42;14.90;;;-0.50;99.90;;;;;;5039494;28;20932;-64
2023/12/02 04:40:56;;;;;;;27.75;13.35;;;-0.50;99.90;;;;;;5043226;28;20374;-66
2023/12/02 04:43:24;;;;;;;30.58;14.85;;;-0.50;99.90;;;;;;5043066;28;20587;-64
2023/12/02 04:45:52;;;;;;;29.20;14.27;;;-0.60;99.90;;;;;;5045171;28;20247;-65
2023/12/02 04:48:20;;;;;;;30.70;14.70;;;-0.60;99.90;;;;;;5038447;28;20198;-65
2023/12/02 04:50:48;;;;;;;28.30;15.13;;;-0.60;99.90;;;;;;5046513;28;20232;-65
2023/12/02 04:53:17;;;;;;;35.28;15.10;;;-0.60;99.90;;;;;;5045674;28;20237;-65
2023/12/02 04:55:44;;;;;;;31.02;15.85;;;-0.50;99.90;;;;;;5043733;28;20205;-64
2023/12/02 04:58:14;;;;;;;28.98;14.57;;;-0.50;99.90;;;;;;5042138;28;20217;-65
2023/12/02 05:00:42;;;;;;;32.30;14.68;;;-0.50;99.90;;;;;;5039309;28;20727;-66
2023/12/02 05:03:10;;;;;;;31.42;15.25;;;-0.50;99.90;;;;;;5044234;28;20796;-65
2023/12/02 05:05:38;;;;;;;31.08;15.85;;;-0.50;99.90;;;;;;5045734;28;20211;-65
2023/12/02 05:08:06;;;;;;;33.97;15.70;;;-0.50;99.90;;;;;;5044620;28;20215;-65
2023/12/02 05:10:34;;;;;;;33.83;15.63;;;-0.60;99.90;;;;;;5043025;28;20865;-65
2023/12/02 05:13:02;;;;;;;32.88;15.18;;;-0.60;99.90;;;;;;5040458;28;20259;-64
2023/12/02 05:15:31;;;;;;;38.15;15.93;;;-0.60;99.90;;;;;;5035681;28;20626;-64
2023/12/02 05:17:59;;;;;;;30.02;15.23;;;-0.60;99.90;;;;;;5044913;28;20636;-64
2023/12/02 05:20:27;;;;;;;35.47;16.58;;;-0.60;99.90;;;;;;5043664;28;20201;-65
2023/12/02 05:22:55;;;;;;;34.50;15.38;;;-0.60;99.90;;;;;;5043237;28;20203;-64
2023/12/02 05:25:23;;;;;;;25.65;13.48;;;-0.60;99.90;;;;;;5040521;28;20679;-65
2023/12/02 05:27:51;;;;;;;32.60;15.88;;;-0.60;99.90;;;;;;5045302;28;20214;-65
2023/12/02 05:30:20;;;;;;;28.35;13.80;;;-0.60;99.90;;;;;;5036298;28;20268;-65
2023/12/02 05:32:51;;;;;;;28.42;13.25;;;-0.60;99.90;;;;;;5045646;28;20232;-65
2023/12/02 05:35:21;;;;;;;32.15;15.15;;;-0.60;99.90;;;;;;5039101;28;20193;-67
2023/12/02 05:37:50;;;;;;;32.60;14.93;;;-0.60;99.90;;;;;;5043914;28;20707;-66
2023/12/02 05:40:18;;;;;;;31.95;15.10;;;-0.70;99.90;;;;;;5042651;28;20220;-64
2023/12/02 05:42:46;;;;;;;28.83;14.63;;;-0.70;99.90;;;;;;5043716;28;20236;-65
2023/12/02 05:45:14;;;;;;;31.02;15.18;;;-0.70;99.90;;;;;;5044084;28;20205;-63
2023/12/02 05:47:42;;;;;;;31.35;14.38;;;-0.60;99.90;;;;;;5041025;28;20209;-63
2023/12/02 05:50:12;;;;;;;32.70;13.95;;;-0.70;99.90;;;;;;5043380;28;20221;-65
2023/12/02 05:52:40;;;;;;;26.98;12.80;;;-0.80;99.90;;;;;;5043849;28;20204;-65
2023/12/02 05:55:08;;;;;;;29.30;13.43;;;-0.70;99.90;;;;;;5044688;28;20673;-66
2023/12/02 05:57:38;;;;;;;32.15;14.55;;;-0.80;99.90;;;;;;5043217;28;20209;-65
2023/12/02 06:00:07;;;;;;;31.13;14.93;;;-0.70;99.90;;;;;;5045795;28;20206;-63
2023/12/02 06:02:35;;;;;;;26.83;13.80;;;-0.70;99.90;;;;;;5041990;28;20213;-63
2023/12/02 06:05:03;;;;;;;31.50;13.15;;;-0.70;99.90;;;;;;5045475;28;20236;-65
2023/12/02 06:07:33;;;;;;;31.33;12.27;;;-0.80;99.90;;;;;;5041759;28;20198;-65
2023/12/02 06:10:01;;;;;;;25.40;11.98;;;-0.80;99.90;;;;;;5043956;28;20312;-64
2023/12/02 06:12:31;;;;;;;29.92;13.25;;;-0.80;99.90;;;;;;5040696;28;20275;-64
2023/12/02 06:14:59;;;;;;;30.50;14.10;;;-0.80;99.90;;;;;;5044563;28;20209;-65
2023/12/02 06:17:27;;;;;;;28.73;14.60;;;-0.80;99.90;;;;;;5045279;28;20208;-64
2023/12/02 06:19:57;;;;;;;27.85;13.13;;;-0.80;99.90;;;;;;5043738;28;20225;-64
2023/12/02 06:22:25;;;;;;;24.00;12.20;;;-0.80;99.90;;;;;;5038859;28;20266;-64
2023/12/02 06:24:55;;;;;;;28.98;13.40;;;-0.80;99.90;;;;;;5042751;28;20212;-64
2023/12/02 06:27:22;;;;;;;26.25;12.30;;;-0.80;99.90;;;;;;5039088;28;20285;-64
2023/12/02 06:29:51;;;;;;;26.98;14.02;;;-0.80;99.90;;;;;;5038416;28;20201;-64
2023/12/02 06:32:18;;;;;;;26.60;13.48;;;-0.80;99.90;;;;;;5043409;28;20232;-64
2023/12/02 06:34:46;;;;;;;27.50;11.30;;;-0.80;99.90;;;;;;5041076;28;20271;-66
2023/12/02 06:37:14;;;;;;;27.40;12.50;;;-0.80;99.90;;;;;;5043681;28;20208;-65
2023/12/02 06:39:42;;;;;;;27.40;11.43;;;-0.80;99.90;;;;;;5041600;28;20209;-64
2023/12/02 06:42:12;;;;;;;22.95;11.75;;;-0.90;99.90;;;;;;5046008;28;20221;-68
2023/12/02 06:44:41;;;;;;;27.75;12.32;;;-0.90;99.90;;;;;;5045482;28;20272;-64
2023/12/02 06:47:13;;;;;;;32.00;14.88;;;-0.90;99.90;;;;;;5045042;28;20288;-64
2023/12/02 06:49:41;;;;;;;36.40;14.15;;;-0.90;99.90;;;;;;5045203;28;20615;-65
2023/12/02 06:52:09;;;;;;;29.70;13.00;;;-0.90;99.90;;;;;;5044662;28;20238;-65
2023/12/02 06:54:37;;;;;;;36.45;13.65;;;-0.90;99.90;;;;;;5046150;28;20228;-65
2023/12/02 06:57:06;;;;;;;29.40;12.00;;;-0.90;99.90;;;;;;5046607;28;20291;-64
2023/12/02 06:59:35;;;;;;;28.10;12.80;;;-1.00;99.90;;;;;;5043174;28;20244;-63
2023/12/02 07:02:03;;;;;;;24.80;11.02;;;-1.00;99.90;;;;;;5044373;28;20312;-64
2023/12/02 07:04:32;;;;;;;27.80;13.30;;;-1.10;99.90;;;;;;5035417;28;20222;-63
2023/12/02 07:07:00;;;;;;;30.52;12.57;;;-1.10;99.90;;;;;;5043629;28;20201;-64
2023/12/02 07:09:28;;;;;;;23.70;11.05;;;-1.10;99.90;;;;;;5046447;28;20205;-63
2023/12/02 07:11:57;;;;;;;24.90;12.32;;;-1.10;99.90;;;;;;5047723;28;20233;-63
2023/12/02 07:14:25;;;;;;;30.80;11.55;;;-1.20;99.90;;;;;;5044043;28;20201;-64
2023/12/02 07:16:54;;;;;;;27.67;13.40;;;-1.20;99.90;;;;;;5045540;28;20201;-64
2023/12/02 07:19:22;;;;;;;26.08;13.43;;;-1.30;99.90;;;;;;5039265;28;20201;-65
2023/12/02 07:21:51;;;;;;;30.10;13.77;;;-1.30;99.90;;;;;;5043965;28;20217;-64
2023/12/02 07:24:19;;;;;;;26.13;12.95;;;-1.20;99.90;;;;;;5044396;28;20251;-65
2023/12/02 07:26:49;;;;;;;26.52;13.48;;;-1.20;99.90;;;;;;5046967;28;20202;-65
2023/12/02 07:29:17;;;;;;;27.02;13.40;;;-1.20;99.90;;;;;;5041695;28;20209;-65
2023/12/02 07:31:45;;;;;;;31.40;12.77;;;-1.10;99.90;;;;;;5042122;28;20693;-64
2023/12/02 07:34:14;;;;;;;27.23;13.82;;;-1.10;99.90;;;;;;5038061;28;20301;-66
2023/12/02 07:36:42;;;;;;;26.63;12.95;;;-1.20;99.90;;;;;;5044582;28;20201;-65
2023/12/02 07:39:11;;;;;;;27.58;12.88;;;-1.10;99.90;;;;;;5044404;28;20618;-65
2023/12/02 07:41:39;;;;;;;26.10;13.30;;;-1.20;99.90;;;;;;5043991;28;20210;-65
2023/12/02 07:44:07;;;;;;;28.67;12.45;;;-1.10;99.90;;;;;;5045923;28;20258;-65
2023/12/02 07:46:35;;;;;;;25.38;12.73;;;-1.20;99.90;;;;;;5044307;28;20881;-65
2023/12/02 07:49:03;;;;;;;30.10;13.48;;;-1.20;99.90;;;;;;5042301;28;20206;-66
2023/12/02 07:51:32;;;;;;;28.20;11.90;;;-1.20;99.90;;;;;;5045053;28;20217;-65
2023/12/02 07:54:00;;;;;;;25.05;11.32;;;-1.10;99.90;;;;;;5045454;28;20197;-65
2023/12/02 07:56:28;;;;;;;33.13;13.25;;;-1.20;99.90;;;;;;5039045;28;20300;-66
2023/12/02 07:58:56;;;;;;;28.33;13.50;;;-1.20;99.90;;;;;;5043980;28;20303;-67
2023/12/02 08:01:24;;;;;;;23.35;9.45;;;-1.20;99.90;;;;;;5044921;28;20744;-67
2023/12/02 08:03:52;;;;;;;26.45;10.77;;;-1.20;99.90;;;;;;5041026;28;20296;-64
2023/12/02 08:06:21;;;;;;;23.63;10.90;;;-1.30;99.90;;;;;;5042856;28;20659;-67
2023/12/02 08:08:53;;;;;;;25.95;10.82;;;-1.20;99.90;;;;;;5045121;28;20201;-67
2023/12/02 08:11:22;;;;;;;21.38;9.00;;;-1.10;99.90;;;;;;5043828;28;20673;-69
2023/12/02 08:13:50;;;;;;;24.20;11.10;;;-1.10;99.90;;;;;;5041473;28;20221;-64
2023/12/02 08:16:18;;;;;;;28.65;12.70;;;-1.10;99.90;;;;;;5046161;28;20213;-67
2023/12/02 08:18:46;;;;;;;24.95;11.35;;;-1.10;99.90;;;;;;5043137;28;20193;-65
2023/12/02 08:21:14;;;;;;;24.52;11.80;;;-1.10;99.90;;;;;;5046149;28;20305;-68
2023/12/02 08:23:41;;;;;;;29.83;13.32;;;-1.10;99.90;;;;;;5042612;28;20205;-68
2023/12/02 08:26:11;;;;;;;24.95;11.75;;;-1.10;99.90;;;;;;5045354;28;20206;-68
2023/12/02 08:28:39;;;;;;;27.92;13.35;;;-1.10;99.90;;;;;;5044313;28;20201;-66
2023/12/02 08:31:07;;;;;;;23.83;11.35;;;-1.10;99.90;;;;;;5043610;28;20711;-65
2023/12/02 08:33:35;;;;;;;30.40;13.40;;;-1.10;99.90;;;;;;5049166;28;20201;-66
2023/12/02 08:36:04;;;;;;;27.35;13.52;;;-1.10;99.90;;;;;;5043031;28;20584;-66
2023/12/02 08:38:32;;;;;;;32.03;14.13;;;-1.10;99.90;;;;;;5042883;28;20208;-66
2023/12/02 08:41:03;;;;;;;30.08;14.27;;;-1.00;99.90;;;;;;5044318;28;20225;-66
2023/12/02 08:43:33;;;;;;;23.10;10.90;;;-1.00;99.90;;;;;;5046100;28;20220;-66
2023/12/02 08:46:01;;;;;;;26.70;12.57;;;-1.00;99.90;;;;;;5042384;28;20296;-65
2023/12/02 08:48:29;;;;;;;27.95;13.18;;;-1.10;99.90;;;;;;5041013;28;20926;-67
2023/12/02 08:50:57;;;;;;;31.20;14.30;;;-1.10;99.90;;;;;;5038765;28;20271;-66
2023/12/02 08:53:25;;;;;;;29.80;12.60;;;-1.10;99.90;;;;;;5037737;28;20718;-66
2023/12/02 08:55:53;;;;;;;26.33;12.48;;;-1.00;99.90;;;;;;5038541;28;20730;-66
2023/12/02 08:58:21;;;;;;;26.40;14.52;;;-1.00;99.90;;;;;;5043567;28;20271;-64
2023/12/02 09:00:50;;;;;;;26.77;12.73;;;-1.00;99.90;;;;;;5040231;28;20221;-66
2023/12/02 09:03:20;;;;;;;29.23;14.50;;;-1.00;99.90;;;;;;5038642;28;20193;-67
2023/12/02 09:05:48;;;;;;;25.20;12.93;;;-1.00;99.90;;;;;;5036717;28;20202;-66
2023/12/02 09:08:16;;;;;;;29.05;12.80;;;-1.00;99.90;;;;;;5042775;28;20240;-66
2023/12/02 09:10:44;;;;;;;30.70;13.80;;;-1.00;99.90;;;;;;5042654;28;20279;-66
2023/12/02 09:13:23;;;;;;;27.92;12.15;;;-1.00;99.90;;;;;;5041836;28;20209;-65
2023/12/02 09:15:53;;;;;;;25.92;12.20;;;-1.00;99.90;;;;;;5042432;28;20192;-65
2023/12/02 09:18:30;;;;;;;27.30;12.50;;;-1.00;99.90;;;;;;5040941;28;20205;-66
2023/12/02 09:20:58;;;;;;;23.05;11.60;;;-0.90;99.90;;;;;;5046630;28;20383;-66
2023/12/02 09:23:26;;;;;;;25.50;12.13;;;-0.90;99.90;;;;;;5038718;28;20281;-66
2023/12/02 09:26:01;;;;;;;27.17;12.75;;;-0.90;99.90;;;;;;5043834;28;20194;-66
2023/12/02 09:28:29;;;;;;;23.65;11.32;;;-1.00;99.90;;;;;;5038540;28;20196;-68
2023/12/02 09:31:01;;;;;;;22.95;11.23;;;-1.00;99.90;;;;;;5042154;28;20861;-67
2023/12/02 09:33:37;;;;;;;26.58;12.35;;;-1.00;99.90;;;;;;5037692;28;20270;-66
2023/12/02 09:36:07;;;;;;;26.88;13.88;;;-1.00;99.90;;;;;;5037301;28;20225;-67
2023/12/02 09:38:35;;;;;;;27.75;13.13;;;-1.00;99.90;;;;;;5037536;28;20205;-65
2023/12/02 09:41:18;;;;;;;26.88;12.00;;;-1.00;99.90;;;;;;5037555;28;20251;-65
2023/12/02 09:44:05;;;;;;;24.23;11.30;;;-1.00;99.90;;;;;;5044311;28;20513;-66
2023/12/02 09:46:38;;;;;;;27.70;13.50;;;-1.00;99.90;;;;;;5038395;28;20201;-65
2023/12/02 09:49:27;;;;;;;27.48;12.68;;;-1.00;99.90;;;;;;5041574;28;20195;-65
2023/12/02 09:52:25;;;;;;;23.70;10.63;;;-1.10;99.90;;;;;;5043798;28;20714;-66
2023/12/02 09:55:03;;;;;;;19.98;9.73;;;-1.10;99.90;;;;;;5041948;28;20808;-64
2023/12/02 09:57:37;;;;;;;26.52;11.55;;;-1.00;99.90;;;;;;5044313;28;20223;-64
2023/12/02 10:00:09;;;;;;;23.90;12.65;;;-0.90;99.90;;;;;;5036451;28;20259;-63
2023/12/02 10:02:51;;;;;;;23.17;10.55;;;-0.80;99.90;;;;;;5040993;28;20204;-63
2023/12/02 10:05:19;;;;;;;21.25;11.05;;;-0.80;99.90;;;;;;5041055;28;20227;-64
2023/12/02 10:08:03;;;;;;;25.33;12.27;;;-0.80;99.90;;;;;;5040792;28;20201;-66
2023/12/02 10:10:41;;;;;;;23.67;10.40;;;-0.90;99.90;;;;;;5040667;28;22041;-65
2023/12/02 10:13:18;;;;;;;19.70;9.63;;;-0.90;99.90;;;;;;5046468;28;20221;-65
2023/12/02 10:15:49;;;;;;;23.55;10.43;;;-1.00;99.90;;;;;;5042849;28;20232;-65
2023/12/02 10:18:22;;;;;;;25.63;11.20;;;-1.00;99.90;;;;;;5034251;28;20198;-67
2023/12/02 10:20:59;;;;;;;22.10;11.20;;;-1.00;99.90;;;;;;5047074;28;21156;-66
2023/12/02 10:23:32;;;;;;;20.75;10.57;;;-1.00;99.90;;;;;;5046065;28;20205;-69
2023/12/02 10:26:06;;;;;;;21.33;10.50;;;-1.00;99.90;;;;;;5040808;28;20941;-66
2023/12/02 10:28:47;;;;;;;22.88;10.73;;;-1.00;99.90;;;;;;5043257;28;20208;-68
2023/12/02 10:31:25;;;;;;;22.67;9.82;;;-1.00;99.90;;;;;;5044784;28;20221;-66
2023/12/02 10:34:02;;;;;;;24.65;11.20;;;-1.00;99.90;;;;;;5044012;28;20515;-66
2023/12/02 10:36:33;;;;;;;21.65;9.63;;;-1.00;99.90;;;;;;5044429;28;20205;-66
2023/12/02 10:39:09;;;;;;;25.60;11.52;;;-1.00;99.90;;;;;;5045319;28;20476;-66
2023/12/02 10:41:47;;;;;;;19.88;9.27;;;-1.00;99.90;;;;;;5038353;28;20234;-65
2023/12/02 10:44:20;;;;;;;20.70;9.38;;;-1.10;99.90;;;;;;5042222;28;20208;-68
2023/12/02 10:46:50;;;;;;;19.88;11.05;;;-1.10;99.90;;;;;;5044333;28;20881;-64
2023/12/02 10:49:20;;;;;;;22.58;10.40;;;-1.10;99.90;;;;;;5038733;28;20205;-67
2023/12/02 10:51:51;;;;;;;21.40;9.35;;;-1.10;99.90;;;;;;5043880;28;20231;-65
2023/12/02 10:54:24;;;;;;;18.88;8.10;;;-1.10;99.90;;;;;;5042645;28;20880;-65
2023/12/02 10:57:05;;;;;;;19.38;9.32;;;-1.20;99.90;;;;;;5042107;28;20212;-67
2023/12/02 10:59:37;;;;;;;19.55;8.63;;;-1.20;99.90;;;;;;5044339;28;20217;-66
2023/12/02 11:02:25;;;;;;;15.93;7.93;;;-1.20;99.90;;;;;;5044066;28;20270;-64
2023/12/02 11:05:10;;;;;;;18.27;9.32;;;-1.20;99.90;;;;;;5044633;28;20201;-68
2023/12/02 11:07:44;;;;;;;21.80;9.93;;;-1.30;99.90;;;;;;5043123;28;20212;-67
2023/12/02 11:10:17;;;;;;;17.40;8.20;;;-1.30;99.90;;;;;;5042364;28;20285;-67
2023/12/02 11:12:51;;;;;;;18.48;7.45;;;-1.30;99.90;;;;;;5040399;28;20231;-65
2023/12/02 11:15:23;;;;;;;21.05;8.70;;;-1.20;99.90;;;;;;5043703;28;20310;-68
2023/12/02 11:18:03;;;;;;;20.73;8.73;;;-1.20;99.90;;;;;;5042756;28;20609;-67
2023/12/02 11:20:43;;;;;;;20.00;9.40;;;-1.10;99.90;;;;;;5044464;28;20197;-66
2023/12/02 11:23:43;;;;;;;24.75;9.93;;;-1.10;99.90;;;;;;5046650;28;20195;-67
2023/12/02 11:26:20;;;;;;;15.48;8.13;;;-0.90;99.90;;;;;;5043318;28;20631;-66
2023/12/02 11:29:00;;;;;;;16.23;8.35;;;-0.90;99.90;;;;;;5044553;28;20210;-68
2023/12/02 11:31:57;;;;;;;18.80;8.18;;;-1.00;99.90;;;;;;5039458;28;20236;-67
2023/12/02 11:34:41;;;;;;;17.90;7.85;;;-1.10;99.90;;;;;;5042469;28;20222;-65
2023/12/02 11:37:21;;;;;;;17.63;8.10;;;-1.20;99.90;;;;;;5043116;28;20869;-69
2023/12/02 11:40:03;;;;;;;14.43;7.38;;;-1.20;99.90;;;;;;5042771;28;21155;-65
2023/12/02 11:42:39;;;;;;;14.93;6.45;;;-1.30;99.90;;;;;;5042828;28;20601;-66
2023/12/02 11:45:17;;;;;;;12.93;6.00;;;-1.30;99.90;;;;;;5044045;28;20196;-64
2023/12/02 11:48:07;;;;;;;18.73;8.38;;;-1.30;99.90;;;;;;5044493;28;20206;-64
2023/12/02 11:50:48;;;;;;;14.88;6.47;;;-1.30;99.90;;;;;;5043990;28;20264;-66
2023/12/02 11:53:30;;;;;;;14.75;7.68;;;-1.30;99.90;;;;;;5043183;28;20776;-65
2023/12/02 11:56:09;;;;;;;17.30;8.07;;;-1.30;99.90;;;;;;5043415;28;20745;-66
2023/12/02 11:58:51;;;;;;;18.75;9.35;;;-1.30;99.90;;;;;;5044199;28;20205;-66
2023/12/02 12:01:31;;;;;;;15.35;6.70;;;-1.20;99.90;;;;;;5044271;28;20221;-67
2023/12/02 12:04:18;;;;;;;17.02;8.40;;;-1.20;99.90;;;;;;5042824;28;20270;-65
2023/12/02 12:07:02;;;;;;;16.20;8.10;;;-1.10;99.90;;;;;;5042506;28;20217;-66
2023/12/02 12:09:41;;;;;;;13.65;6.28;;;-1.00;99.90;;;;;;5042251;28;20307;-65
2023/12/02 12:12:12;;;;;;;12.30;6.20;;;-1.00;99.90;;;;;;5043173;28;20246;-66
2023/12/02 12:14:42;;;;;;;14.15;6.70;;;-1.10;99.90;;;;;;5041473;28;20568;-65
2023/12/02 12:17:10;;;;;;;18.70;7.00;;;-1.10;99.90;;;;;;5039820;28;20209;-65
2023/12/02 12:19:38;;;;;;;13.55;6.85;;;-1.20;99.90;;;;;;5043290;28;20209;-66
2023/12/02 12:22:07;;;;;;;15.40;6.60;;;-1.20;99.90;;;;;;5042513;28;20225;-64
2023/12/02 12:24:36;;;;;;;14.18;6.82;;;-1.20;99.90;;;;;;5039542;28;20259;-65
2023/12/02 12:27:04;;;;;;;13.38;6.20;;;-1.30;99.90;;;;;;5036927;28;20222;-65
2023/12/02 12:29:33;;;;;;;17.10;7.85;;;-1.40;99.90;;;;;;5042509;28;20204;-65
2023/12/02 12:32:01;;;;;;;15.85;7.70;;;-1.30;99.90;;;;;;5041866;28;20212;-65
2023/12/02 12:34:29;;;;;;;16.58;7.30;;;-1.30;99.90;;;;;;5037974;28;20228;-64
2023/12/02 12:36:57;;;;;;;17.40;7.63;;;-1.30;99.90;;;;;;5040676;28;20221;-66
2023/12/02 12:39:27;;;;;;;17.17;7.53;;;-1.30;99.90;;;;;;5043294;28;20228;-66
2023/12/02 12:41:57;;;;;;;16.65;8.40;;;-1.30;99.90;;;;;;5044455;28;20264;-65
2023/12/02 12:44:25;;;;;;;11.55;5.40;;;-1.20;99.90;;;;;;5040212;28;20226;-67
2023/12/02 12:46:55;;;;;;;14.23;6.00;;;-1.10;99.90;;;;;;5044137;28;20233;-65